createdAt,value
2023-05-12T00:00:33.949Z,3.90
2023-05-12T00:03:03.893Z,5.03
2023-05-12T00:05:31.292Z,3.22
2023-05-12T00:07:58.691Z,4.63
2023-05-12T00:10:28.300Z,3.92
2023-05-12T00:12:55.906Z,3.67
2023-05-12T00:15:23.302Z,4.22
2023-05-12T00:17:52.448Z,4.53
2023-05-12T00:20:20.059Z,4.50
2023-05-12T00:22:47.598Z,4.20
2023-05-12T00:25:14.869Z,4.50
2023-05-12T00:27:42.144Z,3.72
2023-05-12T00:30:10.495Z,6.85
2023-05-12T00:32:38.064Z,5.20
2023-05-12T00:35:05.584Z,3.78
2023-05-12T00:37:32.883Z,3.80
2023-05-12T00:40:01.006Z,4.35
2023-05-12T00:42:28.291Z,4.30
2023-05-12T00:44:55.626Z,4.15
2023-05-12T00:47:23.093Z,3.65
2023-05-12T00:49:50.419Z,3.60
2023-05-12T00:52:17.855Z,3.30
2023-05-12T00:54:45.322Z,4.72
2023-05-12T00:57:13.218Z,4.25
2023-05-12T00:59:40.649Z,4.50
2023-05-12T01:02:08.788Z,4.23
2023-05-12T01:04:36.971Z,3.88
2023-05-12T01:07:05.845Z,3.50
2023-05-12T01:09:33.648Z,3.53
2023-05-12T01:12:01.415Z,4.25
2023-05-12T01:14:30.709Z,3.30
2023-05-12T01:17:00.708Z,3.33
2023-05-12T01:19:49.992Z,3.63
2023-05-12T01:22:17.894Z,3.15
2023-05-12T01:25:02.722Z,3.47
2023-05-12T01:27:32.263Z,3.50
2023-05-12T01:30:01.158Z,2.88
2023-05-12T01:32:30.803Z,3.40
2023-05-12T01:34:58.802Z,3.58
2023-05-12T01:37:27.016Z,3.10
2023-05-12T01:39:55.377Z,3.10
2023-05-12T01:42:22.748Z,3.38
2023-05-12T01:44:51.126Z,3.10
2023-05-12T01:47:19.174Z,2.70
2023-05-12T01:49:54.408Z,3.08
2023-05-12T01:52:21.858Z,3.00
2023-05-12T01:54:51.400Z,3.50
2023-05-12T01:57:19.171Z,2.88
2023-05-12T01:59:46.993Z,2.55
2023-05-12T02:02:14.421Z,4.00
2023-05-12T02:04:41.832Z,3.70
2023-05-12T02:07:09.171Z,4.13
2023-05-12T02:09:36.742Z,3.97
2023-05-12T02:12:04.400Z,3.75
2023-05-12T02:14:31.736Z,3.45
2023-05-12T02:16:59.184Z,3.50
2023-05-12T02:19:26.620Z,3.08
2023-05-12T02:21:55.329Z,4.20
2023-05-12T02:24:22.701Z,3.20
2023-05-12T02:26:50.301Z,4.05
2023-05-12T02:29:18.638Z,3.67
2023-05-12T02:31:46.098Z,2.63
2023-05-12T02:34:16.861Z,2.55
2023-05-12T02:36:44.228Z,3.03
2023-05-12T02:39:13.486Z,2.78
2023-05-12T02:41:41.388Z,3.03
2023-05-12T02:44:08.883Z,2.58
2023-05-12T02:46:37.321Z,2.63
2023-05-12T02:49:04.727Z,2.92
2023-05-12T02:51:32.050Z,2.80
2023-05-12T02:53:59.393Z,2.50
2023-05-12T02:56:26.792Z,2.50
2023-05-12T02:58:54.137Z,2.15
2023-05-12T03:01:21.493Z,2.15
2023-05-12T03:03:48.998Z,2.50
2023-05-12T03:06:16.429Z,1.80
2023-05-12T03:08:43.749Z,2.03
2023-05-12T03:11:11.091Z,2.08
2023-05-12T03:13:38.471Z,1.88
2023-05-12T03:16:05.932Z,1.92
2023-05-12T03:18:33.297Z,1.60
2023-05-12T03:21:00.600Z,2.15
2023-05-12T03:23:27.909Z,2.05
2023-05-12T03:25:55.876Z,1.95
2023-05-12T03:28:24.716Z,1.52
2023-05-12T03:30:52.390Z,2.20
2023-05-12T03:33:19.656Z,2.28
2023-05-12T03:35:47.180Z,2.30
2023-05-12T03:38:14.530Z,4.07
2023-05-12T03:40:41.907Z,2.50
2023-05-12T03:43:09.459Z,3.07
2023-05-12T03:45:36.759Z,4.07
2023-05-12T03:48:04.114Z,4.00
2023-05-12T03:50:31.417Z,3.80
2023-05-12T03:53:00.047Z,4.30
2023-05-12T03:55:27.945Z,3.40
2023-05-12T03:57:55.250Z,5.07
2023-05-12T04:00:22.918Z,5.05
2023-05-12T04:02:51.090Z,6.15
2023-05-12T04:05:18.447Z,8.02
2023-05-12T04:07:45.821Z,8.87
2023-05-12T04:10:13.078Z,8.88
2023-05-12T04:12:40.420Z,10.02
2023-05-12T04:15:08.962Z,8.85
2023-05-12T04:17:36.639Z,9.43
2023-05-12T04:20:04.240Z,9.87
2023-05-12T04:22:31.729Z,9.68
2023-05-12T04:24:59.143Z,10.52
2023-05-12T04:27:26.614Z,12.50
2023-05-12T04:29:53.964Z,11.38
2023-05-12T04:32:22.157Z,11.67
2023-05-12T04:34:49.711Z,13.32
2023-05-12T04:37:17.261Z,11.25
2023-05-12T04:39:44.784Z,12.98
2023-05-12T04:42:12.140Z,11.85
2023-05-12T04:44:40.337Z,10.10
2023-05-12T04:47:07.732Z,14.95
2023-05-12T04:49:35.075Z,14.40
2023-05-12T04:52:02.477Z,13.50
2023-05-12T04:54:29.812Z,13.23
2023-05-12T04:56:57.228Z,15.80
2023-05-12T04:59:25.160Z,15.00
2023-05-12T05:01:54.334Z,14.75
2023-05-12T05:04:21.963Z,12.48
2023-05-12T05:06:49.369Z,16.85
2023-05-12T05:09:16.781Z,14.53
2023-05-12T05:11:44.594Z,19.88
2023-05-12T05:14:12.862Z,15.43
2023-05-12T05:16:40.254Z,16.38
2023-05-12T05:19:15.945Z,16.90
2023-05-12T05:21:51.671Z,18.27
2023-05-12T05:24:18.984Z,17.42
2023-05-12T05:26:46.262Z,18.95
2023-05-12T05:29:13.632Z,18.60
2023-05-12T05:31:41.558Z,20.70
2023-05-12T05:34:09.035Z,19.33
2023-05-12T05:36:36.556Z,23.10
2023-05-12T05:39:03.890Z,20.45
2023-05-12T05:41:31.205Z,20.27
2023-05-12T05:43:58.523Z,19.25
2023-05-12T05:46:26.008Z,21.33
2023-05-12T05:48:53.486Z,21.50
2023-05-12T05:51:21.351Z,20.10
2023-05-12T05:53:48.833Z,23.77
2023-05-12T05:56:17.037Z,21.17
2023-05-12T05:58:44.790Z,24.37
2023-05-12T06:01:13.180Z,24.80
2023-05-12T06:03:41.857Z,26.08
2023-05-12T06:06:09.303Z,22.52
2023-05-12T06:08:36.591Z,23.48
2023-05-12T06:11:03.986Z,22.07
2023-05-12T06:13:31.944Z,22.58
2023-05-12T06:16:00.561Z,22.80
2023-05-12T06:18:27.979Z,22.02
2023-05-12T06:20:55.663Z,24.38
2023-05-12T06:23:23.569Z,23.70
2023-05-12T06:25:50.852Z,23.67
2023-05-12T06:28:18.212Z,23.30
2023-05-12T06:30:46.380Z,22.35
2023-05-12T06:33:13.675Z,22.42
2023-05-12T06:35:40.990Z,20.30
2023-05-12T06:38:11.142Z,23.02
2023-05-12T06:40:38.486Z,24.73
2023-05-12T06:43:05.776Z,23.65
2023-05-12T06:45:35.933Z,22.65
2023-05-12T06:48:07.874Z,22.63
2023-05-12T06:50:39.187Z,22.60
2023-05-12T06:53:12.005Z,24.48
2023-05-12T06:55:44.050Z,23.23
2023-05-12T06:58:19.167Z,24.00
2023-05-12T07:00:57.675Z,21.40
2023-05-12T07:03:30.597Z,20.23
2023-05-12T07:06:00.971Z,22.98
2023-05-12T07:08:29.569Z,21.40
2023-05-12T07:10:58.209Z,21.98
2023-05-12T07:13:27.801Z,23.43
2023-05-12T07:15:57.466Z,21.95
2023-05-12T07:18:27.702Z,22.33
2023-05-12T07:21:00.602Z,23.77
2023-05-12T07:23:30.156Z,23.33
2023-05-12T07:25:59.235Z,22.23
2023-05-12T07:28:26.685Z,22.77
2023-05-12T07:30:53.991Z,21.63
2023-05-12T07:33:21.262Z,20.80
2023-05-12T07:35:48.665Z,22.00
2023-05-12T07:38:19.057Z,20.90
2023-05-12T07:40:46.437Z,20.73
2023-05-12T07:43:13.811Z,20.20
2023-05-12T07:45:41.149Z,22.25
2023-05-12T07:48:08.560Z,18.95
2023-05-12T07:50:36.096Z,21.23
2023-05-12T07:53:04.222Z,20.00
2023-05-12T07:55:31.608Z,20.45
2023-05-12T07:57:58.952Z,20.27
2023-05-12T08:00:26.342Z,22.55
2023-05-12T08:02:54.294Z,19.60
2023-05-12T08:05:22.248Z,18.75
2023-05-12T08:07:49.747Z,19.48
2023-05-12T08:10:17.386Z,17.17
2023-05-12T08:12:44.781Z,19.05
2023-05-12T08:15:12.492Z,16.30
2023-05-12T08:17:39.867Z,18.77
2023-05-12T08:20:07.612Z,18.75
2023-05-12T08:22:34.964Z,15.88
2023-05-12T08:25:02.421Z,17.58
2023-05-12T08:27:29.775Z,16.37
2023-05-12T08:29:57.116Z,16.00
2023-05-12T08:32:24.556Z,17.70
2023-05-12T08:34:51.886Z,14.45
2023-05-12T08:37:19.324Z,13.15
2023-05-12T08:39:46.609Z,15.23
2023-05-12T08:42:29.056Z,16.42
2023-05-12T08:44:56.497Z,15.65
2023-05-12T08:47:25.788Z,13.98
2023-05-12T08:50:03.494Z,14.70
2023-05-12T08:52:33.743Z,14.30
2023-05-12T08:55:03.276Z,17.25
2023-05-12T08:57:31.873Z,12.95
2023-05-12T09:00:00.198Z,12.38
2023-05-12T09:02:35.053Z,11.82
2023-05-12T09:05:09.100Z,9.70
2023-05-12T09:07:37.075Z,11.25
2023-05-12T09:10:06.751Z,11.90
2023-05-12T09:12:37.906Z,9.15
2023-05-12T09:15:07.951Z,9.15
2023-05-12T09:17:38.564Z,10.60
2023-05-12T09:20:09.876Z,10.75
2023-05-12T09:22:42.672Z,10.48
2023-05-12T09:25:22.997Z,9.77
2023-05-12T09:27:56.156Z,7.57
2023-05-12T09:30:32.047Z,15.17
2023-05-12T09:33:07.412Z,8.05
2023-05-12T09:35:45.191Z,7.97
2023-05-12T09:38:32.149Z,9.48
2023-05-12T09:41:01.894Z,8.32
2023-05-12T09:43:31.429Z,8.00
2023-05-12T09:46:07.739Z,8.32
2023-05-12T09:48:37.304Z,7.88
2023-05-12T09:51:08.633Z,7.63
2023-05-12T09:53:43.396Z,7.15
2023-05-12T09:59:10.060Z,7.43
2023-05-12T10:01:47.046Z,6.35
2023-05-12T10:04:21.578Z,6.72
2023-05-12T10:06:51.668Z,7.10
2023-05-12T10:09:37.662Z,7.43
2023-05-12T10:12:10.967Z,9.98
2023-05-12T10:14:39.861Z,8.32
2023-05-12T10:17:10.966Z,8.75
2023-05-12T10:19:42.228Z,6.97
2023-05-12T10:22:13.401Z,6.13
2023-05-12T10:24:44.571Z,8.55
2023-05-12T10:27:15.158Z,6.82
2023-05-12T10:29:46.222Z,5.07
2023-05-12T10:32:17.263Z,4.75
2023-05-12T10:34:46.284Z,6.93
2023-05-12T10:37:15.684Z,7.40
2023-05-12T10:39:54.212Z,4.60
2023-05-12T10:42:26.218Z,4.53
2023-05-12T10:44:56.688Z,4.10
2023-05-12T10:47:29.721Z,5.50
2023-05-12T10:49:59.072Z,3.70
2023-05-12T10:52:28.053Z,3.92
2023-05-12T10:55:03.252Z,3.83
2023-05-12T10:57:33.940Z,3.45
2023-05-12T11:00:04.004Z,3.80
2023-05-12T11:02:36.981Z,3.80
2023-05-12T11:05:13.509Z,5.47
2023-05-12T11:07:48.432Z,3.85
2023-05-12T11:10:17.987Z,4.93
2023-05-12T11:12:48.328Z,3.80
2023-05-12T11:15:18.215Z,6.05
2023-05-12T11:17:47.240Z,6.25
2023-05-12T11:20:35.722Z,3.63
2023-05-12T11:23:04.983Z,5.07
2023-05-12T11:25:37.243Z,3.97
2023-05-12T11:28:15.559Z,3.67
2023-05-12T11:30:56.050Z,6.47
2023-05-12T11:33:27.573Z,1.77
2023-05-12T11:36:07.735Z,3.50
2023-05-12T11:38:36.683Z,2.50
2023-05-12T11:41:05.458Z,4.15
2023-05-12T11:43:35.168Z,5.25
2023-05-12T11:46:03.314Z,2.05
2023-05-12T11:48:35.709Z,3.08
2023-05-12T11:51:04.316Z,3.60
2023-05-12T11:53:33.463Z,3.85
2023-05-12T11:56:01.721Z,2.30
2023-05-12T11:58:30.959Z,1.95
2023-05-12T12:01:11.167Z,3.45
2023-05-12T12:03:48.073Z,2.20
2023-05-12T12:06:17.097Z,3.28
2023-05-12T12:08:56.332Z,2.30
2023-05-12T12:11:27.164Z,1.88
2023-05-12T12:13:59.117Z,2.35
2023-05-12T12:16:28.101Z,6.10
2023-05-12T12:18:56.408Z,2.63
2023-05-12T12:21:28.107Z,2.20
2023-05-12T12:23:56.009Z,2.60
2023-05-12T12:26:24.867Z,5.97
2023-05-12T12:28:53.449Z,1.83
2023-05-12T12:31:25.658Z,3.72
2023-05-12T12:33:56.203Z,3.38
2023-05-12T12:36:24.424Z,4.70
2023-05-12T12:38:52.006Z,3.20
2023-05-12T12:41:19.290Z,3.67
2023-05-12T12:43:46.596Z,2.53
2023-05-12T12:46:13.869Z,1.35
2023-05-12T12:48:41.210Z,1.60
2023-05-12T12:51:08.591Z,2.00
2023-05-12T12:53:36.213Z,3.27
2023-05-12T12:56:03.828Z,1.92
2023-05-12T12:58:31.184Z,2.95
2023-05-12T13:00:58.654Z,2.38
2023-05-12T13:03:26.166Z,2.75
2023-05-12T13:05:54.075Z,3.93
2023-05-12T13:08:21.377Z,4.35
2023-05-12T13:10:48.685Z,4.03
2023-05-12T13:13:16.124Z,4.72
2023-05-12T13:15:43.488Z,9.48
2023-05-12T13:18:10.884Z,4.87
2023-05-12T13:20:38.322Z,5.93
2023-05-12T13:23:05.591Z,4.40
2023-05-12T13:25:33.088Z,3.67
2023-05-12T13:28:00.474Z,3.42
2023-05-12T13:30:27.919Z,3.57
2023-05-12T13:32:55.462Z,3.35
2023-05-12T13:35:23.231Z,4.15
2023-05-12T13:37:50.727Z,3.45
2023-05-12T13:40:18.088Z,2.88
2023-05-12T13:42:45.362Z,3.37
2023-05-12T13:45:12.627Z,3.10
2023-05-12T13:47:40.764Z,3.50
2023-05-12T13:50:09.728Z,3.75
2023-05-12T13:52:37.014Z,3.38
2023-05-12T13:55:04.392Z,4.10
2023-05-12T13:57:31.772Z,3.25
2023-05-12T13:59:59.141Z,3.45
2023-05-12T14:02:26.456Z,4.25
2023-05-12T14:04:54.025Z,3.58
2023-05-12T14:07:21.754Z,3.20
2023-05-12T14:09:49.088Z,4.85
2023-05-12T14:12:16.404Z,4.28
2023-05-12T14:14:49.575Z,3.70
2023-05-12T14:17:17.781Z,4.63
2023-05-12T14:19:45.595Z,3.60
2023-05-12T14:22:25.710Z,4.18
2023-05-12T14:24:55.771Z,4.57
2023-05-12T14:27:23.545Z,5.13
2023-05-12T14:29:51.105Z,6.18
2023-05-12T14:32:18.519Z,4.17
2023-05-12T14:34:45.865Z,3.08
2023-05-12T14:37:13.281Z,3.58
2023-05-12T14:39:40.839Z,4.13
2023-05-12T14:42:08.225Z,4.68
2023-05-12T14:44:35.568Z,4.50
2023-05-12T14:47:02.899Z,6.05
2023-05-12T14:49:30.200Z,4.30
2023-05-12T14:51:57.543Z,3.42
2023-05-12T14:54:26.005Z,4.28
2023-05-12T14:56:53.786Z,4.13
2023-05-12T14:59:21.107Z,3.70
2023-05-12T15:01:48.408Z,4.18
2023-05-12T15:04:15.761Z,5.05
2023-05-12T15:06:43.012Z,11.05
2023-05-12T15:09:10.668Z,7.93
2023-05-12T15:11:37.988Z,6.05
2023-05-12T15:14:05.796Z,4.85
2023-05-12T15:16:33.282Z,9.63
2023-05-12T15:19:00.691Z,4.25
2023-05-12T15:21:28.111Z,4.50
2023-05-12T15:23:55.827Z,6.32
2023-05-12T15:26:32.964Z,5.13
2023-05-12T15:29:01.853Z,5.43
2023-05-12T15:31:30.010Z,4.03
2023-05-12T15:33:57.899Z,5.20
2023-05-12T15:36:25.243Z,4.50
2023-05-12T15:38:52.705Z,4.90
2023-05-12T15:41:19.991Z,4.95
2023-05-12T15:43:47.415Z,3.33
2023-05-12T15:46:14.817Z,3.57
2023-05-12T15:48:42.178Z,3.63
2023-05-12T15:51:09.483Z,3.47
2023-05-12T15:53:36.897Z,3.97
2023-05-12T15:56:04.741Z,5.22
2023-05-12T15:58:32.389Z,5.83
2023-05-12T16:01:00.396Z,5.18
2023-05-12T16:03:27.897Z,5.00
2023-05-12T16:05:55.805Z,5.05
2023-05-12T16:08:24.122Z,4.88
2023-05-12T16:10:51.464Z,4.10
2023-05-12T16:13:18.803Z,4.28
2023-05-12T16:15:46.182Z,6.90
2023-05-12T16:18:13.560Z,8.57
2023-05-12T16:20:41.905Z,4.13
2023-05-12T16:23:09.309Z,8.37
2023-05-12T16:25:37.319Z,6.00
2023-05-12T16:28:05.312Z,4.97
2023-05-12T16:30:32.758Z,5.15
2023-05-12T16:33:00.283Z,4.15
2023-05-12T16:35:27.837Z,5.40
2023-05-12T16:37:55.223Z,5.97
2023-05-12T16:40:22.532Z,4.80
2023-05-12T16:42:50.040Z,4.15
2023-05-12T16:45:17.370Z,3.17
2023-05-12T16:47:44.744Z,4.73
2023-05-12T16:50:12.194Z,3.92
2023-05-12T16:52:39.474Z,7.80
2023-05-12T16:55:07.194Z,8.13
2023-05-12T16:57:34.595Z,6.22
2023-05-12T17:00:05.348Z,6.60
2023-05-12T17:02:33.219Z,5.35
2023-05-12T17:05:00.657Z,5.78
2023-05-12T17:07:28.288Z,5.07
2023-05-12T17:09:55.598Z,5.85
2023-05-12T17:12:22.930Z,8.93
2023-05-12T17:14:59.302Z,9.65
2023-05-12T17:17:31.142Z,6.57
2023-05-12T17:19:58.663Z,5.22
2023-05-12T17:22:26.119Z,3.78
2023-05-12T17:24:56.168Z,7.97
2023-05-12T17:27:23.703Z,5.55
2023-05-12T17:29:51.114Z,3.88
2023-05-12T17:32:18.578Z,4.65
2023-05-12T17:34:46.004Z,4.95
2023-05-12T17:37:13.264Z,4.90
2023-05-12T17:39:42.039Z,5.28
2023-05-12T17:42:09.318Z,3.85
2023-05-12T17:44:36.645Z,5.68
2023-05-12T17:47:04.604Z,6.00
2023-05-12T17:49:32.571Z,6.57
2023-05-12T17:51:59.925Z,5.07
2023-05-12T17:54:27.196Z,6.38
2023-05-12T17:56:54.701Z,6.10
2023-05-12T17:59:22.531Z,7.32
2023-05-12T18:01:49.938Z,7.10
2023-05-12T18:04:17.570Z,8.15
2023-05-12T18:06:44.956Z,10.60
2023-05-12T18:09:13.680Z,10.20
2023-05-12T18:11:40.983Z,10.30
2023-05-12T18:14:08.681Z,8.33
2023-05-12T18:16:36.468Z,11.43
2023-05-12T18:19:04.222Z,7.05
2023-05-12T18:21:32.625Z,8.45
2023-05-12T18:23:59.955Z,9.75
2023-05-12T18:26:27.466Z,9.93
2023-05-12T18:28:55.000Z,9.60
2023-05-12T18:31:22.377Z,7.80
2023-05-12T18:33:50.277Z,10.82
2023-05-12T18:36:17.758Z,8.20
2023-05-12T18:38:45.737Z,8.73
2023-05-12T18:41:13.083Z,9.27
2023-05-12T18:43:40.415Z,10.68
2023-05-12T18:46:07.853Z,8.63
2023-05-12T18:48:35.215Z,9.68
2023-05-12T18:51:02.564Z,9.87
2023-05-12T18:53:29.881Z,11.02
2023-05-12T18:55:57.199Z,8.40
2023-05-12T18:58:24.605Z,9.02
2023-05-12T19:00:51.886Z,8.32
2023-05-12T19:03:19.352Z,9.17
2023-05-12T19:05:48.781Z,7.85
2023-05-12T19:08:17.677Z,8.80
2023-05-12T19:10:45.496Z,10.40
2023-05-12T19:13:13.317Z,7.57
2023-05-12T19:15:40.614Z,8.60
2023-05-12T19:18:08.034Z,7.25
2023-05-12T19:20:35.637Z,9.45
2023-05-12T19:23:03.092Z,14.43
2023-05-12T19:25:30.406Z,10.82
2023-05-12T19:27:57.788Z,11.20
2023-05-12T19:30:26.835Z,11.82
2023-05-12T19:32:54.179Z,9.88
2023-05-12T19:35:22.652Z,9.60
2023-05-12T19:37:50.348Z,8.50
2023-05-12T19:40:17.650Z,8.13
2023-05-12T19:42:44.953Z,9.60
2023-05-12T19:45:12.412Z,8.07
2023-05-12T19:47:39.883Z,13.85
2023-05-12T19:50:08.184Z,14.25
2023-05-12T19:52:36.115Z,17.43
2023-05-12T19:55:03.473Z,13.27
2023-05-12T19:57:31.000Z,16.27
2023-05-12T19:59:58.310Z,28.08
2023-05-12T20:02:30.849Z,13.85
2023-05-12T20:05:01.814Z,12.13
2023-05-12T20:07:29.302Z,13.10
2023-05-12T20:09:56.736Z,12.05
2023-05-12T20:12:24.253Z,13.90
2023-05-12T20:14:51.648Z,11.38
2023-05-12T20:17:19.101Z,13.27
2023-05-12T20:19:46.404Z,11.05
2023-05-12T20:22:13.757Z,53.17
2023-05-12T20:24:41.198Z,14.52
2023-05-12T20:27:08.582Z,12.55
2023-05-12T20:29:35.974Z,10.73
2023-05-12T20:32:03.444Z,12.68
2023-05-12T20:34:30.722Z,10.63
2023-05-12T20:37:01.054Z,10.10
2023-05-12T20:39:29.012Z,10.73
2023-05-12T20:41:56.438Z,9.67
2023-05-12T20:44:23.746Z,8.73
2023-05-12T20:46:51.157Z,8.43
2023-05-12T20:49:18.577Z,14.02
2023-05-12T20:51:45.871Z,20.40
2023-05-12T20:54:13.168Z,10.77
2023-05-12T20:56:40.588Z,11.10
2023-05-12T20:59:07.916Z,13.27
2023-05-12T21:01:35.187Z,8.90
2023-05-12T21:04:02.535Z,9.70
2023-05-12T21:06:29.969Z,8.07
2023-05-12T21:08:57.310Z,8.80
2023-05-12T21:11:24.671Z,7.63
2023-05-12T21:13:51.926Z,7.55
2023-05-12T21:16:19.305Z,12.00
2023-05-12T21:18:46.718Z,9.00
2023-05-12T21:21:14.054Z,10.98
2023-05-12T21:23:41.306Z,7.35
2023-05-12T21:26:10.464Z,8.38
2023-05-12T21:28:38.053Z,8.40
2023-05-12T21:31:05.553Z,8.40
2023-05-12T21:33:33.278Z,10.60
2023-05-12T21:36:00.574Z,7.53
2023-05-12T21:38:27.892Z,7.90
2023-05-12T21:40:56.379Z,8.95
2023-05-12T21:43:24.036Z,8.23
2023-05-12T21:45:52.634Z,8.90
2023-05-12T21:48:20.051Z,8.13
2023-05-12T21:50:57.133Z,9.05
2023-05-12T21:53:24.415Z,9.40
2023-05-12T21:55:51.677Z,7.67
2023-05-12T21:58:18.980Z,8.45
2023-05-12T22:00:46.240Z,8.95
2023-05-12T22:03:13.687Z,7.95
2023-05-12T22:05:41.114Z,9.23
2023-05-12T22:08:08.497Z,7.97
2023-05-12T22:10:35.749Z,7.93
2023-05-12T22:13:03.079Z,8.15
2023-05-12T22:15:30.378Z,8.95
2023-05-12T22:17:57.767Z,7.88
2023-05-12T22:20:25.138Z,8.43
2023-05-12T22:22:52.652Z,8.60
2023-05-12T22:25:19.940Z,8.15
2023-05-12T22:27:47.265Z,9.10
2023-05-12T22:30:14.728Z,7.47
2023-05-12T22:32:42.173Z,8.60
2023-05-12T22:35:09.886Z,7.63
2023-05-12T22:37:37.296Z,10.30
2023-05-12T22:40:04.858Z,8.02
2023-05-12T22:42:32.228Z,8.05
2023-05-12T22:45:00.841Z,7.33
2023-05-12T22:47:28.277Z,10.40
2023-05-12T22:49:55.903Z,7.80
2023-05-12T22:52:23.286Z,11.40
2023-05-12T22:54:56.591Z,8.95
2023-05-12T22:57:24.232Z,7.23
2023-05-12T22:59:51.741Z,8.02
2023-05-12T23:02:19.126Z,7.70
2023-05-12T23:04:46.677Z,9.10
2023-05-12T23:07:13.960Z,7.60
2023-05-12T23:09:41.441Z,10.77
2023-05-12T23:12:08.893Z,9.98
2023-05-12T23:14:36.190Z,9.52
2023-05-12T23:17:03.580Z,10.00
2023-05-12T23:19:30.954Z,7.57
2023-05-12T23:21:58.215Z,6.73
2023-05-12T23:24:25.735Z,9.05
2023-05-12T23:26:53.006Z,7.20
2023-05-12T23:29:20.312Z,8.90
2023-05-12T23:31:47.648Z,7.40
2023-05-12T23:34:14.977Z,6.43
2023-05-12T23:36:42.458Z,7.03
2023-05-12T23:39:09.774Z,5.95
2023-05-12T23:41:37.034Z,7.10
2023-05-12T23:44:04.409Z,6.13
2023-05-12T23:46:31.711Z,6.37
2023-05-12T23:48:59.104Z,6.60
2023-05-12T23:51:26.449Z,5.00
2023-05-12T23:53:53.753Z,5.65
2023-05-12T23:56:22.362Z,7.10
2023-05-12T23:58:49.675Z,7.47
